sensor_id;sensor_type;location;lat;lon;timestamp;P1;durP1;ratioP1;P2;durP2;ratioP2
57651;SDS011;43480;53.116;6.734;2024-01-06T00:00:34;30.35;;;17.52;;
57651;SDS011;43480;53.116;6.734;2024-01-06T00:03:00;28.33;;;16.60;;
57651;SDS011;43480;53.116;6.734;2024-01-06T00:05:26;27.88;;;17.08;;
57651;SDS011;43480;53.116;6.734;2024-01-06T00:07:51;25.98;;;15.80;;
57651;SDS011;43480;53.116;6.734;2024-01-06T00:10:17;26.10;;;16.40;;
57651;SDS011;43480;53.116;6.734;2024-01-06T00:12:43;30.15;;;16.92;;
57651;SDS011;43480;53.116;6.734;2024-01-06T00:15:09;26.85;;;16.45;;
57651;SDS011;43480;53.116;6.734;2024-01-06T00:17:35;25.80;;;15.05;;
57651;SDS011;43480;53.116;6.734;2024-01-06T00:20:01;26.63;;;15.82;;
57651;SDS011;43480;53.116;6.734;2024-01-06T00:22:28;25.50;;;16.50;;
57651;SDS011;43480;53.116;6.734;2024-01-06T00:24:53;27.38;;;15.35;;
57651;SDS011;43480;53.116;6.734;2024-01-06T00:27:19;23.45;;;14.10;;
57651;SDS011;43480;53.116;6.734;2024-01-06T00:29:45;25.42;;;14.55;;
57651;SDS011;43480;53.116;6.734;2024-01-06T00:32:10;25.83;;;16.75;;
57651;SDS011;43480;53.116;6.734;2024-01-06T00:34:36;23.15;;;14.55;;
57651;SDS011;43480;53.116;6.734;2024-01-06T00:37:02;27.48;;;16.13;;
57651;SDS011;43480;53.116;6.734;2024-01-06T00:39:28;24.00;;;15.13;;
57651;SDS011;43480;53.116;6.734;2024-01-06T00:41:54;27.27;;;15.38;;
57651;SDS011;43480;53.116;6.734;2024-01-06T00:44:19;32.78;;;17.38;;
57651;SDS011;43480;53.116;6.734;2024-01-06T00:46:45;27.65;;;15.80;;
57651;SDS011;43480;53.116;6.734;2024-01-06T00:49:11;32.58;;;17.02;;
57651;SDS011;43480;53.116;6.734;2024-01-06T00:51:36;29.48;;;18.42;;
57651;SDS011;43480;53.116;6.734;2024-01-06T00:54:02;31.95;;;16.98;;
57651;SDS011;43480;53.116;6.734;2024-01-06T00:56:28;28.23;;;16.23;;
57651;SDS011;43480;53.116;6.734;2024-01-06T00:58:54;29.90;;;17.88;;
57651;SDS011;43480;53.116;6.734;2024-01-06T01:01:19;29.65;;;18.20;;
57651;SDS011;43480;53.116;6.734;2024-01-06T01:03:46;29.33;;;16.40;;
57651;SDS011;43480;53.116;6.734;2024-01-06T01:06:12;28.55;;;16.85;;
57651;SDS011;43480;53.116;6.734;2024-01-06T01:08:37;30.63;;;18.42;;
57651;SDS011;43480;53.116;6.734;2024-01-06T01:11:03;26.13;;;15.23;;
57651;SDS011;43480;53.116;6.734;2024-01-06T01:13:29;28.98;;;16.58;;
57651;SDS011;43480;53.116;6.734;2024-01-06T01:15:55;27.35;;;15.07;;
57651;SDS011;43480;53.116;6.734;2024-01-06T01:18:21;24.80;;;15.25;;
57651;SDS011;43480;53.116;6.734;2024-01-06T01:20:46;24.38;;;14.40;;
57651;SDS011;43480;53.116;6.734;2024-01-06T01:23:12;26.38;;;15.10;;
57651;SDS011;43480;53.116;6.734;2024-01-06T01:25:38;24.17;;;14.98;;
57651;SDS011;43480;53.116;6.734;2024-01-06T01:28:04;24.48;;;15.20;;
57651;SDS011;43480;53.116;6.734;2024-01-06T01:30:29;29.23;;;15.85;;
57651;SDS011;43480;53.116;6.734;2024-01-06T01:32:57;27.27;;;16.13;;
57651;SDS011;43480;53.116;6.734;2024-01-06T01:35:23;31.73;;;17.10;;
57651;SDS011;43480;53.116;6.734;2024-01-06T01:37:49;28.75;;;17.08;;
57651;SDS011;43480;53.116;6.734;2024-01-06T01:40:15;31.20;;;16.83;;
57651;SDS011;43480;53.116;6.734;2024-01-06T01:42:43;30.15;;;18.23;;
57651;SDS011;43480;53.116;6.734;2024-01-06T01:45:09;25.60;;;14.93;;
57651;SDS011;43480;53.116;6.734;2024-01-06T01:47:35;26.17;;;14.68;;
57651;SDS011;43480;53.116;6.734;2024-01-06T01:50:01;26.60;;;16.98;;
57651;SDS011;43480;53.116;6.734;2024-01-06T01:52:28;25.92;;;14.57;;
57651;SDS011;43480;53.116;6.734;2024-01-06T01:54:55;22.05;;;12.73;;
57651;SDS011;43480;53.116;6.734;2024-01-06T01:57:22;24.67;;;13.63;;
57651;SDS011;43480;53.116;6.734;2024-01-06T01:59:50;23.25;;;13.95;;
57651;SDS011;43480;53.116;6.734;2024-01-06T02:02:18;25.83;;;14.38;;
57651;SDS011;43480;53.116;6.734;2024-01-06T02:04:44;22.23;;;13.85;;
57651;SDS011;43480;53.116;6.734;2024-01-06T02:07:10;22.35;;;14.18;;
57651;SDS011;43480;53.116;6.734;2024-01-06T02:09:36;29.20;;;15.35;;
57651;SDS011;43480;53.116;6.734;2024-01-06T02:12:02;22.88;;;14.70;;
57651;SDS011;43480;53.116;6.734;2024-01-06T02:14:28;24.95;;;14.32;;
57651;SDS011;43480;53.116;6.734;2024-01-06T02:16:54;26.52;;;15.00;;
57651;SDS011;43480;53.116;6.734;2024-01-06T02:19:19;30.92;;;16.75;;
57651;SDS011;43480;53.116;6.734;2024-01-06T02:21:49;26.15;;;15.35;;
57651;SDS011;43480;53.116;6.734;2024-01-06T02:24:19;32.15;;;17.90;;
57651;SDS011;43480;53.116;6.734;2024-01-06T02:26:45;30.85;;;17.45;;
57651;SDS011;43480;53.116;6.734;2024-01-06T02:29:10;29.17;;;17.58;;
57651;SDS011;43480;53.116;6.734;2024-01-06T02:31:36;33.30;;;16.85;;
57651;SDS011;43480;53.116;6.734;2024-01-06T02:34:02;28.52;;;15.82;;
57651;SDS011;43480;53.116;6.734;2024-01-06T02:36:27;27.52;;;16.67;;
57651;SDS011;43480;53.116;6.734;2024-01-06T02:38:53;25.92;;;14.95;;
57651;SDS011;43480;53.116;6.734;2024-01-06T02:41:19;29.15;;;16.42;;
57651;SDS011;43480;53.116;6.734;2024-01-06T02:43:44;31.55;;;17.02;;
57651;SDS011;43480;53.116;6.734;2024-01-06T02:46:10;32.17;;;17.15;;
57651;SDS011;43480;53.116;6.734;2024-01-06T02:48:35;27.20;;;15.25;;
57651;SDS011;43480;53.116;6.734;2024-01-06T02:51:01;27.08;;;15.68;;
57651;SDS011;43480;53.116;6.734;2024-01-06T02:53:27;28.52;;;14.30;;
57651;SDS011;43480;53.116;6.734;2024-01-06T02:55:52;23.08;;;14.10;;
57651;SDS011;43480;53.116;6.734;2024-01-06T02:58:18;26.25;;;13.98;;
57651;SDS011;43480;53.116;6.734;2024-01-06T03:00:44;25.40;;;14.63;;
57651;SDS011;43480;53.116;6.734;2024-01-06T03:03:10;26.42;;;14.60;;
57651;SDS011;43480;53.116;6.734;2024-01-06T03:05:35;27.85;;;14.82;;
57651;SDS011;43480;53.116;6.734;2024-01-06T03:08:02;28.88;;;15.30;;
57651;SDS011;43480;53.116;6.734;2024-01-06T03:10:29;29.75;;;15.38;;
57651;SDS011;43480;53.116;6.734;2024-01-06T03:12:54;25.88;;;14.98;;
57651;SDS011;43480;53.116;6.734;2024-01-06T03:15:20;25.00;;;14.55;;
57651;SDS011;43480;53.116;6.734;2024-01-06T03:17:45;26.85;;;15.18;;
57651;SDS011;43480;53.116;6.734;2024-01-06T03:20:11;27.17;;;14.63;;
57651;SDS011;43480;53.116;6.734;2024-01-06T03:22:37;24.55;;;14.60;;
57651;SDS011;43480;53.116;6.734;2024-01-06T03:25:03;26.67;;;15.15;;
57651;SDS011;43480;53.116;6.734;2024-01-06T03:27:29;25.02;;;14.07;;
57651;SDS011;43480;53.116;6.734;2024-01-06T03:29:55;21.92;;;13.48;;
57651;SDS011;43480;53.116;6.734;2024-01-06T03:32:21;21.67;;;12.23;;
57651;SDS011;43480;53.116;6.734;2024-01-06T03:34:47;20.88;;;11.90;;
57651;SDS011;43480;53.116;6.734;2024-01-06T03:37:12;23.85;;;13.38;;
57651;SDS011;43480;53.116;6.734;2024-01-06T03:39:38;22.67;;;12.80;;
57651;SDS011;43480;53.116;6.734;2024-01-06T03:42:04;21.13;;;13.25;;
57651;SDS011;43480;53.116;6.734;2024-01-06T03:44:30;22.42;;;12.80;;
57651;SDS011;43480;53.116;6.734;2024-01-06T03:46:58;24.05;;;13.13;;
57651;SDS011;43480;53.116;6.734;2024-01-06T03:49:24;23.45;;;13.88;;
57651;SDS011;43480;53.116;6.734;2024-01-06T03:51:50;22.73;;;12.85;;
57651;SDS011;43480;53.116;6.734;2024-01-06T03:54:16;23.63;;;12.38;;
57651;SDS011;43480;53.116;6.734;2024-01-06T03:56:42;23.77;;;14.75;;
57651;SDS011;43480;53.116;6.734;2024-01-06T03:59:08;20.13;;;12.38;;
57651;SDS011;43480;53.116;6.734;2024-01-06T04:01:33;24.88;;;12.93;;
57651;SDS011;43480;53.116;6.734;2024-01-06T04:04:04;23.50;;;12.80;;
57651;SDS011;43480;53.116;6.734;2024-01-06T04:06:30;22.73;;;13.50;;
57651;SDS011;43480;53.116;6.734;2024-01-06T04:08:59;22.15;;;12.50;;
57651;SDS011;43480;53.116;6.734;2024-01-06T04:11:25;18.45;;;11.80;;
57651;SDS011;43480;53.116;6.734;2024-01-06T04:13:51;20.17;;;12.55;;
57651;SDS011;43480;53.116;6.734;2024-01-06T04:16:17;20.00;;;11.88;;
57651;SDS011;43480;53.116;6.734;2024-01-06T04:18:43;20.92;;;12.05;;
57651;SDS011;43480;53.116;6.734;2024-01-06T04:21:08;18.27;;;11.10;;
57651;SDS011;43480;53.116;6.734;2024-01-06T04:23:34;19.83;;;12.15;;
57651;SDS011;43480;53.116;6.734;2024-01-06T04:26:00;22.02;;;12.18;;
57651;SDS011;43480;53.116;6.734;2024-01-06T04:28:26;18.45;;;11.38;;
57651;SDS011;43480;53.116;6.734;2024-01-06T04:30:52;16.65;;;10.82;;
57651;SDS011;43480;53.116;6.734;2024-01-06T04:33:18;17.70;;;10.73;;
57651;SDS011;43480;53.116;6.734;2024-01-06T04:35:44;17.85;;;11.57;;
57651;SDS011;43480;53.116;6.734;2024-01-06T04:38:09;17.13;;;11.00;;
57651;SDS011;43480;53.116;6.734;2024-01-06T04:40:35;18.00;;;11.55;;
57651;SDS011;43480;53.116;6.734;2024-01-06T04:43:01;19.02;;;12.25;;
57651;SDS011;43480;53.116;6.734;2024-01-06T04:45:28;23.13;;;13.38;;
57651;SDS011;43480;53.116;6.734;2024-01-06T04:47:53;20.92;;;11.85;;
57651;SDS011;43480;53.116;6.734;2024-01-06T04:50:19;20.20;;;12.45;;
57651;SDS011;43480;53.116;6.734;2024-01-06T04:52:45;19.35;;;11.73;;
57651;SDS011;43480;53.116;6.734;2024-01-06T04:55:10;19.98;;;11.98;;
57651;SDS011;43480;53.116;6.734;2024-01-06T04:57:36;19.75;;;12.00;;
57651;SDS011;43480;53.116;6.734;2024-01-06T05:00:02;17.45;;;11.50;;
57651;SDS011;43480;53.116;6.734;2024-01-06T05:02:29;17.80;;;11.52;;
57651;SDS011;43480;53.116;6.734;2024-01-06T05:04:54;19.65;;;12.13;;
57651;SDS011;43480;53.116;6.734;2024-01-06T05:07:20;20.67;;;11.98;;
57651;SDS011;43480;53.116;6.734;2024-01-06T05:09:46;19.67;;;11.32;;
57651;SDS011;43480;53.116;6.734;2024-01-06T05:12:12;20.10;;;12.77;;
57651;SDS011;43480;53.116;6.734;2024-01-06T05:14:38;18.90;;;12.13;;
57651;SDS011;43480;53.116;6.734;2024-01-06T05:17:03;18.55;;;11.27;;
57651;SDS011;43480;53.116;6.734;2024-01-06T05:19:29;19.95;;;11.98;;
57651;SDS011;43480;53.116;6.734;2024-01-06T05:21:55;19.95;;;11.82;;
57651;SDS011;43480;53.116;6.734;2024-01-06T05:24:22;19.35;;;10.60;;
57651;SDS011;43480;53.116;6.734;2024-01-06T05:26:47;18.92;;;11.80;;
57651;SDS011;43480;53.116;6.734;2024-01-06T05:29:13;17.77;;;10.68;;
57651;SDS011;43480;53.116;6.734;2024-01-06T05:31:39;21.10;;;11.75;;
57651;SDS011;43480;53.116;6.734;2024-01-06T05:34:05;17.60;;;11.27;;
57651;SDS011;43480;53.116;6.734;2024-01-06T05:36:30;17.10;;;10.77;;
57651;SDS011;43480;53.116;6.734;2024-01-06T05:38:56;19.98;;;12.57;;
57651;SDS011;43480;53.116;6.734;2024-01-06T05:41:22;18.73;;;11.13;;
57651;SDS011;43480;53.116;6.734;2024-01-06T05:43:47;19.35;;;11.88;;
57651;SDS011;43480;53.116;6.734;2024-01-06T05:46:20;18.95;;;12.48;;
57651;SDS011;43480;53.116;6.734;2024-01-06T05:48:46;19.13;;;11.93;;
57651;SDS011;43480;53.116;6.734;2024-01-06T05:51:12;17.83;;;11.80;;
57651;SDS011;43480;53.116;6.734;2024-01-06T05:53:38;21.70;;;11.68;;
57651;SDS011;43480;53.116;6.734;2024-01-06T05:56:03;20.17;;;11.10;;
57651;SDS011;43480;53.116;6.734;2024-01-06T05:58:29;20.92;;;11.48;;
57651;SDS011;43480;53.116;6.734;2024-01-06T06:00:55;21.83;;;12.95;;
57651;SDS011;43480;53.116;6.734;2024-01-06T06:03:20;17.20;;;11.90;;
57651;SDS011;43480;53.116;6.734;2024-01-06T06:05:46;19.35;;;12.43;;
57651;SDS011;43480;53.116;6.734;2024-01-06T06:08:12;18.63;;;11.35;;
57651;SDS011;43480;53.116;6.734;2024-01-06T06:10:37;18.08;;;11.98;;
57651;SDS011;43480;53.116;6.734;2024-01-06T06:13:16;20.60;;;13.25;;
57651;SDS011;43480;53.116;6.734;2024-01-06T06:15:42;18.02;;;11.38;;
57651;SDS011;43480;53.116;6.734;2024-01-06T06:18:07;17.92;;;12.02;;
57651;SDS011;43480;53.116;6.734;2024-01-06T06:20:33;19.30;;;11.77;;
57651;SDS011;43480;53.116;6.734;2024-01-06T06:22:59;18.75;;;12.13;;
57651;SDS011;43480;53.116;6.734;2024-01-06T06:25:24;17.75;;;11.23;;
57651;SDS011;43480;53.116;6.734;2024-01-06T06:27:50;17.63;;;10.80;;
57651;SDS011;43480;53.116;6.734;2024-01-06T06:30:16;18.95;;;11.73;;
57651;SDS011;43480;53.116;6.734;2024-01-06T06:32:42;21.05;;;13.18;;
57651;SDS011;43480;53.116;6.734;2024-01-06T06:35:07;18.67;;;10.80;;
57651;SDS011;43480;53.116;6.734;2024-01-06T06:37:33;14.68;;;10.38;;
57651;SDS011;43480;53.116;6.734;2024-01-06T06:39:59;18.95;;;11.60;;
57651;SDS011;43480;53.116;6.734;2024-01-06T06:42:24;20.80;;;12.57;;
57651;SDS011;43480;53.116;6.734;2024-01-06T06:44:51;17.40;;;11.65;;
57651;SDS011;43480;53.116;6.734;2024-01-06T06:47:17;17.90;;;11.90;;
57651;SDS011;43480;53.116;6.734;2024-01-06T06:49:44;19.25;;;11.02;;
57651;SDS011;43480;53.116;6.734;2024-01-06T06:52:10;18.85;;;11.38;;
57651;SDS011;43480;53.116;6.734;2024-01-06T06:54:37;19.17;;;11.80;;
57651;SDS011;43480;53.116;6.734;2024-01-06T06:57:03;17.70;;;10.88;;
57651;SDS011;43480;53.116;6.734;2024-01-06T06:59:28;16.70;;;11.02;;
57651;SDS011;43480;53.116;6.734;2024-01-06T07:01:54;17.38;;;11.50;;
57651;SDS011;43480;53.116;6.734;2024-01-06T07:04:20;18.38;;;11.02;;
57651;SDS011;43480;53.116;6.734;2024-01-06T07:06:45;19.10;;;11.73;;
57651;SDS011;43480;53.116;6.734;2024-01-06T07:09:11;17.27;;;11.20;;
57651;SDS011;43480;53.116;6.734;2024-01-06T07:11:37;16.48;;;10.40;;
57651;SDS011;43480;53.116;6.734;2024-01-06T07:14:02;18.02;;;10.85;;
57651;SDS011;43480;53.116;6.734;2024-01-06T07:16:28;19.25;;;11.35;;
57651;SDS011;43480;53.116;6.734;2024-01-06T07:18:54;16.55;;;10.85;;
57651;SDS011;43480;53.116;6.734;2024-01-06T07:21:20;16.65;;;10.98;;
57651;SDS011;43480;53.116;6.734;2024-01-06T07:23:45;15.48;;;11.30;;
57651;SDS011;43480;53.116;6.734;2024-01-06T07:26:11;14.68;;;10.18;;
57651;SDS011;43480;53.116;6.734;2024-01-06T07:28:37;20.13;;;10.93;;
57651;SDS011;43480;53.116;6.734;2024-01-06T07:31:02;17.90;;;12.40;;
57651;SDS011;43480;53.116;6.734;2024-01-06T07:33:29;18.05;;;11.25;;
57651;SDS011;43480;53.116;6.734;2024-01-06T07:35:55;20.17;;;12.32;;
57651;SDS011;43480;53.116;6.734;2024-01-06T07:38:21;17.30;;;11.88;;
57651;SDS011;43480;53.116;6.734;2024-01-06T07:40:47;17.90;;;11.27;;
57651;SDS011;43480;53.116;6.734;2024-01-06T07:43:12;18.90;;;12.00;;
57651;SDS011;43480;53.116;6.734;2024-01-06T07:45:41;15.50;;;11.05;;
57651;SDS011;43480;53.116;6.734;2024-01-06T07:48:06;16.58;;;11.23;;
57651;SDS011;43480;53.116;6.734;2024-01-06T07:50:32;16.77;;;11.68;;
57651;SDS011;43480;53.116;6.734;2024-01-06T07:52:58;19.00;;;13.30;;
57651;SDS011;43480;53.116;6.734;2024-01-06T07:55:23;19.33;;;12.35;;
57651;SDS011;43480;53.116;6.734;2024-01-06T07:57:49;16.08;;;11.07;;
57651;SDS011;43480;53.116;6.734;2024-01-06T08:00:15;17.23;;;11.48;;
57651;SDS011;43480;53.116;6.734;2024-01-06T08:02:41;18.70;;;12.68;;
57651;SDS011;43480;53.116;6.734;2024-01-06T08:05:07;19.27;;;12.25;;
57651;SDS011;43480;53.116;6.734;2024-01-06T08:07:33;19.35;;;12.23;;
57651;SDS011;43480;53.116;6.734;2024-01-06T08:09:59;16.70;;;11.52;;
57651;SDS011;43480;53.116;6.734;2024-01-06T08:12:25;17.67;;;11.70;;
57651;SDS011;43480;53.116;6.734;2024-01-06T08:14:51;19.65;;;13.00;;
57651;SDS011;43480;53.116;6.734;2024-01-06T08:17:16;17.42;;;12.05;;
57651;SDS011;43480;53.116;6.734;2024-01-06T08:19:42;17.70;;;12.82;;
57651;SDS011;43480;53.116;6.734;2024-01-06T08:22:08;18.08;;;11.98;;
57651;SDS011;43480;53.116;6.734;2024-01-06T08:24:33;19.63;;;12.32;;
57651;SDS011;43480;53.116;6.734;2024-01-06T08:26:59;19.83;;;12.07;;
57651;SDS011;43480;53.116;6.734;2024-01-06T08:29:25;17.75;;;11.60;;
57651;SDS011;43480;53.116;6.734;2024-01-06T08:31:50;21.15;;;13.30;;
57651;SDS011;43480;53.116;6.734;2024-01-06T08:34:17;16.40;;;11.60;;
57651;SDS011;43480;53.116;6.734;2024-01-06T08:36:43;17.63;;;12.65;;
57651;SDS011;43480;53.116;6.734;2024-01-06T08:39:09;18.52;;;11.45;;
57651;SDS011;43480;53.116;6.734;2024-01-06T08:41:35;18.23;;;11.65;;
57651;SDS011;43480;53.116;6.734;2024-01-06T08:44:01;17.80;;;12.02;;
57651;SDS011;43480;53.116;6.734;2024-01-06T08:46:26;19.73;;;12.68;;
57651;SDS011;43480;53.116;6.734;2024-01-06T08:48:52;18.65;;;12.82;;
57651;SDS011;43480;53.116;6.734;2024-01-06T08:51:18;16.80;;;11.95;;
57651;SDS011;43480;53.116;6.734;2024-01-06T08:53:45;19.10;;;12.32;;
57651;SDS011;43480;53.116;6.734;2024-01-06T08:56:11;18.52;;;12.93;;
57651;SDS011;43480;53.116;6.734;2024-01-06T08:58:37;16.98;;;11.93;;
57651;SDS011;43480;53.116;6.734;2024-01-06T09:01:02;21.83;;;13.05;;
57651;SDS011;43480;53.116;6.734;2024-01-06T09:03:28;23.80;;;13.68;;
57651;SDS011;43480;53.116;6.734;2024-01-06T09:05:57;21.50;;;13.45;;
57651;SDS011;43480;53.116;6.734;2024-01-06T09:08:23;17.83;;;11.93;;
57651;SDS011;43480;53.116;6.734;2024-01-06T09:10:49;20.88;;;13.40;;
57651;SDS011;43480;53.116;6.734;2024-01-06T09:13:17;18.85;;;12.32;;
57651;SDS011;43480;53.116;6.734;2024-01-06T09:15:43;17.98;;;12.15;;
57651;SDS011;43480;53.116;6.734;2024-01-06T09:18:09;20.00;;;13.80;;
57651;SDS011;43480;53.116;6.734;2024-01-06T09:20:37;20.15;;;12.95;;
57651;SDS011;43480;53.116;6.734;2024-01-06T09:23:03;21.38;;;12.77;;
57651;SDS011;43480;53.116;6.734;2024-01-06T09:25:29;19.10;;;12.65;;
57651;SDS011;43480;53.116;6.734;2024-01-06T09:27:55;21.52;;;13.95;;
57651;SDS011;43480;53.116;6.734;2024-01-06T09:30:21;20.85;;;13.07;;
57651;SDS011;43480;53.116;6.734;2024-01-06T09:32:47;19.52;;;12.50;;
57651;SDS011;43480;53.116;6.734;2024-01-06T09:35:12;21.05;;;13.05;;
57651;SDS011;43480;53.116;6.734;2024-01-06T09:37:39;21.52;;;13.82;;
57651;SDS011;43480;53.116;6.734;2024-01-06T09:40:06;17.85;;;11.63;;
57651;SDS011;43480;53.116;6.734;2024-01-06T09:42:38;19.60;;;13.82;;
57651;SDS011;43480;53.116;6.734;2024-01-06T09:45:04;20.80;;;12.55;;
57651;SDS011;43480;53.116;6.734;2024-01-06T09:47:31;20.58;;;13.07;;
57651;SDS011;43480;53.116;6.734;2024-01-06T09:50:00;18.98;;;12.77;;
57651;SDS011;43480;53.116;6.734;2024-01-06T09:52:29;19.98;;;12.32;;
57651;SDS011;43480;53.116;6.734;2024-01-06T09:54:57;21.33;;;13.30;;
57651;SDS011;43480;53.116;6.734;2024-01-06T09:57:27;20.13;;;12.75;;
57651;SDS011;43480;53.116;6.734;2024-01-06T09:59:53;20.10;;;13.45;;
57651;SDS011;43480;53.116;6.734;2024-01-06T10:02:21;18.65;;;12.18;;
57651;SDS011;43480;53.116;6.734;2024-01-06T10:04:48;18.92;;;12.88;;
57651;SDS011;43480;53.116;6.734;2024-01-06T10:07:13;22.15;;;14.30;;
57651;SDS011;43480;53.116;6.734;2024-01-06T10:09:40;20.13;;;13.52;;
57651;SDS011;43480;53.116;6.734;2024-01-06T10:12:07;20.77;;;13.07;;
57651;SDS011;43480;53.116;6.734;2024-01-06T10:14:33;22.35;;;14.13;;
57651;SDS011;43480;53.116;6.734;2024-01-06T10:16:58;22.00;;;13.88;;
57651;SDS011;43480;53.116;6.734;2024-01-06T10:19:24;22.05;;;13.13;;
57651;SDS011;43480;53.116;6.734;2024-01-06T10:21:50;18.63;;;11.98;;
57651;SDS011;43480;53.116;6.734;2024-01-06T10:24:19;16.35;;;11.85;;
57651;SDS011;43480;53.116;6.734;2024-01-06T10:26:45;20.10;;;12.95;;
57651;SDS011;43480;53.116;6.734;2024-01-06T10:29:12;19.65;;;11.25;;
57651;SDS011;43480;53.116;6.734;2024-01-06T10:31:38;18.67;;;12.27;;
57651;SDS011;43480;53.116;6.734;2024-01-06T10:34:04;20.52;;;12.45;;
57651;SDS011;43480;53.116;6.734;2024-01-06T10:36:31;17.95;;;12.10;;
57651;SDS011;43480;53.116;6.734;2024-01-06T10:38:57;19.77;;;13.00;;
57651;SDS011;43480;53.116;6.734;2024-01-06T10:41:23;20.00;;;13.07;;
57651;SDS011;43480;53.116;6.734;2024-01-06T10:43:50;20.58;;;12.95;;
57651;SDS011;43480;53.116;6.734;2024-01-06T10:46:18;18.83;;;12.57;;
57651;SDS011;43480;53.116;6.734;2024-01-06T10:48:45;18.92;;;11.98;;
57651;SDS011;43480;53.116;6.734;2024-01-06T10:51:12;17.42;;;11.60;;
57651;SDS011;43480;53.116;6.734;2024-01-06T10:53:40;18.27;;;11.25;;
57651;SDS011;43480;53.116;6.734;2024-01-06T10:56:06;16.83;;;11.73;;
57651;SDS011;43480;53.116;6.734;2024-01-06T10:58:33;17.05;;;11.63;;
57651;SDS011;43480;53.116;6.734;2024-01-06T11:01:11;16.90;;;11.25;;
57651;SDS011;43480;53.116;6.734;2024-01-06T11:03:37;18.38;;;11.35;;
57651;SDS011;43480;53.116;6.734;2024-01-06T11:06:05;19.05;;;12.85;;
57651;SDS011;43480;53.116;6.734;2024-01-06T11:08:40;17.73;;;12.30;;
57651;SDS011;43480;53.116;6.734;2024-01-06T11:11:16;20.33;;;13.23;;
57651;SDS011;43480;53.116;6.734;2024-01-06T11:13:45;18.67;;;12.32;;
57651;SDS011;43480;53.116;6.734;2024-01-06T11:16:34;22.00;;;13.18;;
57651;SDS011;43480;53.116;6.734;2024-01-06T11:18:59;17.65;;;11.48;;
57651;SDS011;43480;53.116;6.734;2024-01-06T11:21:25;20.38;;;12.35;;
57651;SDS011;43480;53.116;6.734;2024-01-06T11:26:32;21.73;;;14.18;;
57651;SDS011;43480;53.116;6.734;2024-01-06T11:28:58;21.35;;;12.43;;
57651;SDS011;43480;53.116;6.734;2024-01-06T11:31:30;16.52;;;11.20;;
57651;SDS011;43480;53.116;6.734;2024-01-06T11:33:56;21.30;;;13.18;;
57651;SDS011;43480;53.116;6.734;2024-01-06T11:36:36;17.35;;;12.27;;
57651;SDS011;43480;53.116;6.734;2024-01-06T11:39:02;18.20;;;11.77;;
57651;SDS011;43480;53.116;6.734;2024-01-06T11:41:48;17.50;;;11.68;;
57651;SDS011;43480;53.116;6.734;2024-01-06T11:44:21;17.08;;;11.73;;
57651;SDS011;43480;53.116;6.734;2024-01-06T11:46:47;18.65;;;11.70;;
57651;SDS011;43480;53.116;6.734;2024-01-06T11:49:17;18.90;;;13.32;;
57651;SDS011;43480;53.116;6.734;2024-01-06T11:51:46;16.42;;;12.15;;
57651;SDS011;43480;53.116;6.734;2024-01-06T11:54:12;18.17;;;11.15;;
57651;SDS011;43480;53.116;6.734;2024-01-06T11:56:38;17.05;;;10.77;;
57651;SDS011;43480;53.116;6.734;2024-01-06T11:59:04;19.05;;;12.73;;
57651;SDS011;43480;53.116;6.734;2024-01-06T12:01:39;18.33;;;12.18;;
57651;SDS011;43480;53.116;6.734;2024-01-06T12:04:05;17.45;;;11.55;;
57651;SDS011;43480;53.116;6.734;2024-01-06T12:06:32;19.10;;;11.50;;
57651;SDS011;43480;53.116;6.734;2024-01-06T12:09:05;18.75;;;11.77;;
57651;SDS011;43480;53.116;6.734;2024-01-06T12:11:41;19.77;;;12.83;;
57651;SDS011;43480;53.116;6.734;2024-01-06T12:14:10;19.38;;;12.70;;
57651;SDS011;43480;53.116;6.734;2024-01-06T12:16:36;20.50;;;12.50;;
57651;SDS011;43480;53.116;6.734;2024-01-06T12:19:02;18.90;;;12.73;;
57651;SDS011;43480;53.116;6.734;2024-01-06T12:21:29;19.48;;;12.13;;
57651;SDS011;43480;53.116;6.734;2024-01-06T12:24:18;19.80;;;12.63;;
57651;SDS011;43480;53.116;6.734;2024-01-06T12:26:45;17.33;;;11.45;;
57651;SDS011;43480;53.116;6.734;2024-01-06T12:29:12;18.55;;;12.77;;
57651;SDS011;43480;53.116;6.734;2024-01-06T12:31:41;18.55;;;13.95;;
57651;SDS011;43480;53.116;6.734;2024-01-06T12:34:08;16.77;;;11.15;;
57651;SDS011;43480;53.116;6.734;2024-01-06T12:36:35;15.13;;;10.38;;
57651;SDS011;43480;53.116;6.734;2024-01-06T12:39:04;17.10;;;11.15;;
57651;SDS011;43480;53.116;6.734;2024-01-06T12:41:36;16.70;;;11.02;;
57651;SDS011;43480;53.116;6.734;2024-01-06T12:44:03;15.32;;;11.00;;
57651;SDS011;43480;53.116;6.734;2024-01-06T12:46:29;17.30;;;11.13;;
57651;SDS011;43480;53.116;6.734;2024-01-06T12:48:55;17.20;;;10.48;;
57651;SDS011;43480;53.116;6.734;2024-01-06T12:51:20;15.98;;;10.82;;
57651;SDS011;43480;53.116;6.734;2024-01-06T12:53:46;17.27;;;11.07;;
57651;SDS011;43480;53.116;6.734;2024-01-06T12:56:12;14.82;;;10.55;;
57651;SDS011;43480;53.116;6.734;2024-01-06T12:58:40;15.40;;;10.45;;
57651;SDS011;43480;53.116;6.734;2024-01-06T13:01:06;14.35;;;10.27;;
57651;SDS011;43480;53.116;6.734;2024-01-06T13:03:32;15.80;;;10.73;;
57651;SDS011;43480;53.116;6.734;2024-01-06T13:05:59;16.23;;;10.60;;
57651;SDS011;43480;53.116;6.734;2024-01-06T13:08:25;16.40;;;10.85;;
57651;SDS011;43480;53.116;6.734;2024-01-06T13:10:51;17.52;;;10.50;;
57651;SDS011;43480;53.116;6.734;2024-01-06T13:13:18;15.32;;;10.02;;
57651;SDS011;43480;53.116;6.734;2024-01-06T13:15:43;16.15;;;11.02;;
57651;SDS011;43480;53.116;6.734;2024-01-06T13:18:11;14.50;;;9.65;;
57651;SDS011;43480;53.116;6.734;2024-01-06T13:20:37;17.13;;;9.55;;
57651;SDS011;43480;53.116;6.734;2024-01-06T13:23:07;16.25;;;10.40;;
57651;SDS011;43480;53.116;6.734;2024-01-06T13:25:34;15.02;;;9.05;;
57651;SDS011;43480;53.116;6.734;2024-01-06T13:28:00;17.25;;;10.38;;
57651;SDS011;43480;53.116;6.734;2024-01-06T13:30:26;15.18;;;9.98;;
57651;SDS011;43480;53.116;6.734;2024-01-06T13:32:52;14.50;;;9.60;;
57651;SDS011;43480;53.116;6.734;2024-01-06T13:35:22;15.35;;;10.10;;
57651;SDS011;43480;53.116;6.734;2024-01-06T13:37:53;17.05;;;10.50;;
57651;SDS011;43480;53.116;6.734;2024-01-06T13:40:21;15.52;;;9.93;;
57651;SDS011;43480;53.116;6.734;2024-01-06T13:42:47;15.70;;;11.13;;
57651;SDS011;43480;53.116;6.734;2024-01-06T13:45:14;16.10;;;10.43;;
57651;SDS011;43480;53.116;6.734;2024-01-06T13:47:40;17.00;;;10.85;;
57651;SDS011;43480;53.116;6.734;2024-01-06T13:50:09;18.05;;;11.52;;
57651;SDS011;43480;53.116;6.734;2024-01-06T13:52:36;17.38;;;11.77;;
57651;SDS011;43480;53.116;6.734;2024-01-06T13:55:03;17.85;;;11.77;;
57651;SDS011;43480;53.116;6.734;2024-01-06T13:57:29;20.05;;;12.70;;
57651;SDS011;43480;53.116;6.734;2024-01-06T13:59:55;17.48;;;12.20;;
57651;SDS011;43480;53.116;6.734;2024-01-06T14:02:22;18.23;;;11.55;;
57651;SDS011;43480;53.116;6.734;2024-01-06T14:04:49;16.00;;;10.50;;
57651;SDS011;43480;53.116;6.734;2024-01-06T14:07:15;16.20;;;10.63;;
57651;SDS011;43480;53.116;6.734;2024-01-06T14:09:44;17.55;;;10.55;;
57651;SDS011;43480;53.116;6.734;2024-01-06T14:12:12;17.80;;;11.05;;
57651;SDS011;43480;53.116;6.734;2024-01-06T14:14:38;16.70;;;10.90;;
57651;SDS011;43480;53.116;6.734;2024-01-06T14:17:06;18.42;;;11.90;;
57651;SDS011;43480;53.116;6.734;2024-01-06T14:19:33;19.88;;;10.70;;